Andersonburg, Pennsylvania
Current Conditions -  °F | °C
As of 1:56 AM on Saturday 25 Oct 2014 (Local Time) from KCXY Reporting Station
Clear Clear  
Wind Chill: 50°   Ceiling: Unl
Heat Index: 50°   Visibility: 10mi
Dew Point: 39°   Wind: 7mph
Humidity: 66%   Direction: 260°W
Pressure: 29.94"   Gusts: NA
Location:  40.3674°N, 77.4381°W
Report Text: KCXY 250556Z AUTO 26006KT 10SM CLR 10/04 A2994 RMK AO2 SLP139 T01000039 10150 20094 57000
Loading
Personal Weather Stations






























Interactive Weather Map New forecast layout! Learn more

10-Day Weather Forecast

Advertisements
Track Severe Weather on mobile